createdAt,value
2022-12-17T00:03:59.688Z,13.20
2022-12-17T00:08:59.518Z,15.30
2022-12-17T00:13:59.449Z,13.10
2022-12-17T00:18:59.388Z,14.70
2022-12-17T00:23:59.328Z,16.50
2022-12-17T00:28:59.278Z,12.30
2022-12-17T00:33:59.217Z,15.10
2022-12-17T00:38:59.166Z,13.70
2022-12-17T00:43:59.086Z,14.70
2022-12-17T00:48:59.041Z,12.70
2022-12-17T00:53:58.977Z,14.90
2022-12-17T00:58:58.917Z,14.80
2022-12-17T01:03:58.856Z,12.70
2022-12-17T01:08:58.799Z,15.90
2022-12-17T01:13:58.797Z,15.90
2022-12-17T01:18:58.705Z,17.40
2022-12-17T01:23:58.621Z,14.90
2022-12-17T01:28:58.567Z,19.10
2022-12-17T01:33:58.495Z,12.70
2022-12-17T01:38:58.455Z,12.70
2022-12-17T01:43:58.387Z,14.30
2022-12-17T01:48:58.314Z,16.50
2022-12-17T01:53:58.256Z,13.80
2022-12-17T01:58:58.202Z,14.50
2022-12-17T02:03:58.134Z,12.90
2022-12-17T02:08:58.082Z,12.70
2022-12-17T02:13:58.013Z,16.30
2022-12-17T02:18:57.978Z,14.50
2022-12-17T02:23:57.894Z,14.20
2022-12-17T02:28:57.843Z,13.10
2022-12-17T02:33:57.792Z,14.20
2022-12-17T02:38:57.731Z,13.30
2022-12-17T02:43:57.652Z,15.40
2022-12-17T02:48:57.614Z,15.30
2022-12-17T02:53:57.533Z,16.00
2022-12-17T02:58:57.472Z,13.10
2022-12-17T03:03:57.412Z,13.50
2022-12-17T03:08:57.360Z,13.60
2022-12-17T03:13:57.291Z,14.30
2022-12-17T03:18:57.240Z,14.50
2022-12-17T03:23:57.172Z,14.80
2022-12-17T03:28:57.120Z,14.70
2022-12-17T03:33:57.050Z,16.40
2022-12-17T03:38:56.999Z,13.10
2022-12-17T03:43:56.930Z,13.10
2022-12-17T03:48:56.869Z,14.10
2022-12-17T03:53:56.814Z,12.20
2022-12-17T03:58:56.750Z,13.70
2022-12-17T04:03:56.693Z,14.30
2022-12-17T04:08:56.651Z,14.90
2022-12-17T04:13:56.558Z,14.50
2022-12-17T04:18:56.520Z,13.60
2022-12-17T04:23:56.468Z,12.40
2022-12-17T04:28:56.404Z,14.20
2022-12-17T04:33:56.328Z,13.00
2022-12-17T04:38:56.278Z,14.60
2022-12-17T04:44:01.249Z,15.80
2022-12-17T04:48:57.158Z,12.80
2022-12-17T04:53:56.087Z,15.60
2022-12-17T04:58:56.045Z,15.10
2022-12-17T05:03:56.052Z,13.50
2022-12-17T05:08:55.907Z,13.70
2022-12-17T05:13:55.857Z,15.60
2022-12-17T05:18:55.786Z,13.90
2022-12-17T05:23:55.725Z,16.10
2022-12-17T05:28:55.674Z,14.60
2022-12-17T05:33:55.604Z,16.90
2022-12-17T05:38:55.553Z,14.20
2022-12-17T05:43:55.484Z,14.40
2022-12-17T05:48:55.459Z,15.00
2022-12-17T05:53:55.365Z,15.80
2022-12-17T05:58:55.324Z,14.60
2022-12-17T06:03:55.310Z,14.90
2022-12-17T06:08:55.184Z,16.00
2022-12-17T06:13:55.148Z,13.80
2022-12-17T06:18:55.072Z,13.90
2022-12-17T06:23:55.003Z,15.00
2022-12-17T06:28:54.950Z,15.90
2022-12-17T06:33:54.881Z,17.00
2022-12-17T06:38:54.832Z,13.90
2022-12-17T06:43:54.763Z,10.80
2022-12-17T06:48:54.711Z,14.80
2022-12-17T06:53:54.641Z,17.40
2022-12-17T06:58:54.602Z,14.30
2022-12-17T07:03:54.522Z,13.70
2022-12-17T07:08:54.478Z,14.80
2022-12-17T07:13:54.421Z,14.30
2022-12-17T07:18:54.353Z,15.70
2022-12-17T07:23:54.279Z,17.30
2022-12-17T07:28:54.230Z,13.10
2022-12-17T07:33:54.179Z,14.50
2022-12-17T07:38:54.130Z,13.90
2022-12-17T07:43:54.039Z,13.50
2022-12-17T07:48:53.989Z,13.30
2022-12-17T07:53:53.926Z,16.10
2022-12-17T07:58:53.868Z,14.40
2022-12-17T08:03:53.820Z,12.40
2022-12-17T08:08:53.758Z,11.80
2022-12-17T08:13:53.687Z,12.50
2022-12-17T08:18:53.638Z,10.90
2022-12-17T08:23:53.589Z,14.20
2022-12-17T08:28:53.523Z,13.30
2022-12-17T08:33:53.459Z,11.20
2022-12-17T08:38:53.387Z,13.00
2022-12-17T08:43:53.327Z,14.10
2022-12-17T08:48:53.269Z,12.90
2022-12-17T08:53:53.206Z,11.20
2022-12-17T08:58:58.704Z,13.80
2022-12-17T09:03:54.077Z,10.90
2022-12-17T09:08:53.061Z,13.70
2022-12-17T09:13:52.966Z,16.50
2022-12-17T09:18:52.915Z,12.50
2022-12-17T09:23:52.865Z,12.30
2022-12-17T09:28:52.785Z,12.20
2022-12-17T09:33:52.724Z,11.00
2022-12-17T09:38:52.674Z,11.50
2022-12-17T09:43:52.604Z,12.20
2022-12-17T09:48:52.545Z,13.80
2022-12-17T09:53:52.493Z,15.40
2022-12-17T09:58:52.414Z,13.40
2022-12-17T10:03:52.441Z,13.70
2022-12-17T10:08:52.309Z,14.90
2022-12-17T10:13:52.243Z,11.60
2022-12-17T10:18:52.191Z,13.60
2022-12-17T10:23:52.124Z,11.40
2022-12-17T10:28:52.094Z,14.20
2022-12-17T10:33:52.002Z,11.90
2022-12-17T10:38:51.947Z,9.60
2022-12-17T10:43:51.883Z,16.10
2022-12-17T10:48:51.862Z,12.70
2022-12-17T10:53:51.787Z,11.20
2022-12-17T10:58:51.712Z,9.40
2022-12-17T11:03:51.670Z,13.20
2022-12-17T11:08:51.614Z,12.50
2022-12-17T11:13:51.531Z,10.60
2022-12-17T11:18:51.479Z,10.60
2022-12-17T11:23:51.401Z,11.60
2022-12-17T11:28:51.357Z,12.60
2022-12-17T11:33:51.292Z,12.00
2022-12-17T11:38:51.241Z,12.60
2022-12-17T11:43:51.180Z,13.90
2022-12-17T11:48:51.130Z,12.60
2022-12-17T11:53:51.058Z,14.00
2022-12-17T11:58:51.000Z,13.60
2022-12-17T12:03:51.019Z,11.00
2022-12-17T12:08:50.878Z,13.80
2022-12-17T12:13:50.812Z,14.20
2022-12-17T12:18:50.760Z,12.30
2022-12-17T12:23:50.689Z,10.30
2022-12-17T12:28:50.639Z,13.20
2022-12-17T12:33:50.574Z,13.30
2022-12-17T12:38:50.509Z,9.90
2022-12-17T12:43:50.452Z,9.60
2022-12-17T12:48:50.387Z,9.70
2022-12-17T12:53:50.331Z,10.70
2022-12-17T12:58:50.268Z,15.00
2022-12-17T13:03:50.245Z,11.90
2022-12-17T13:08:50.148Z,12.70
2022-12-17T13:13:50.086Z,10.80
2022-12-17T13:18:50.027Z,12.60
2022-12-17T13:23:49.967Z,11.30
2022-12-17T13:28:49.985Z,11.10
2022-12-17T13:33:49.847Z,11.80
2022-12-17T13:38:49.786Z,14.60
2022-12-17T13:43:49.718Z,10.80
2022-12-17T13:48:49.667Z,12.20
2022-12-17T13:53:49.607Z,10.80
2022-12-17T13:58:51.222Z,12.70
2022-12-17T14:04:05.966Z,11.20
2022-12-17T14:08:50.427Z,10.20
2022-12-17T14:13:49.365Z,10.90
2022-12-17T14:18:49.319Z,9.60
2022-12-17T14:23:49.237Z,10.50
2022-12-17T14:28:50.608Z,11.90
2022-12-17T14:33:49.116Z,11.60
2022-12-17T14:38:49.096Z,12.50
2022-12-17T14:43:49.006Z,10.90
2022-12-17T14:48:48.934Z,11.70
2022-12-17T14:53:48.876Z,15.60
2022-12-17T14:58:48.815Z,13.80
2022-12-17T15:03:48.768Z,10.10
2022-12-17T15:08:48.705Z,10.50
2022-12-17T15:13:52.947Z,9.80
2022-12-17T15:18:49.580Z,7.50
2022-12-17T15:23:48.517Z,8.90
2022-12-17T15:28:48.463Z,7.80
2022-12-17T15:33:48.405Z,10.00
2022-12-17T15:38:48.376Z,11.70
2022-12-17T15:43:48.274Z,10.90
2022-12-17T15:48:50.385Z,9.30
2022-12-17T15:53:48.164Z,9.10
2022-12-17T15:58:48.103Z,10.60
2022-12-17T16:03:48.090Z,10.70
2022-12-17T16:08:47.981Z,10.00
2022-12-17T16:13:47.910Z,10.40
2022-12-17T16:18:47.873Z,9.60
2022-12-17T16:23:47.807Z,17.40
2022-12-17T16:28:47.751Z,11.50
2022-12-17T16:33:47.689Z,14.90
2022-12-17T16:38:47.632Z,10.30
2022-12-17T16:43:47.571Z,12.30
2022-12-17T16:48:47.521Z,9.60
2022-12-17T16:53:47.450Z,11.40
2022-12-17T16:58:47.398Z,13.20
2022-12-17T17:03:47.384Z,13.60
2022-12-17T17:08:47.290Z,9.80
2022-12-17T17:13:47.217Z,14.10
2022-12-17T17:18:47.159Z,10.80
2022-12-17T17:23:47.109Z,9.20
2022-12-17T17:28:47.055Z,8.90
2022-12-17T17:33:46.987Z,12.70
2022-12-17T17:38:46.927Z,8.20
2022-12-17T17:43:46.882Z,12.10
2022-12-17T17:48:46.832Z,12.30
2022-12-17T17:53:46.767Z,13.10
2022-12-17T17:58:46.698Z,9.60
2022-12-17T18:03:46.682Z,12.70
2022-12-17T18:08:46.591Z,11.40
2022-12-17T18:13:46.525Z,9.70
2022-12-17T18:18:46.472Z,10.30
2022-12-17T18:23:46.416Z,11.30
2022-12-17T18:28:46.362Z,13.90
2022-12-17T18:33:46.310Z,16.20
2022-12-17T18:38:46.242Z,18.70
2022-12-17T18:43:46.191Z,17.80
2022-12-17T18:48:46.141Z,11.50
2022-12-17T18:53:46.085Z,13.40
2022-12-17T18:58:46.018Z,11.70
2022-12-17T19:03:45.958Z,14.20
2022-12-17T19:08:45.899Z,14.20
2022-12-17T19:13:45.849Z,20.40
2022-12-17T19:18:45.792Z,13.90
2022-12-17T19:23:45.732Z,12.30
2022-12-17T19:28:45.674Z,9.30
2022-12-17T19:33:45.619Z,11.00
2022-12-17T19:38:45.547Z,11.80
2022-12-17T19:43:45.497Z,12.90
2022-12-17T19:48:48.706Z,12.20
2022-12-17T19:53:45.388Z,14.20
2022-12-17T19:58:45.330Z,12.40
2022-12-17T20:03:45.285Z,13.30
2022-12-17T20:08:45.226Z,11.20
2022-12-17T20:13:48.712Z,11.90
2022-12-17T20:18:46.114Z,10.60
2022-12-17T20:23:45.054Z,12.50
2022-12-17T20:28:44.993Z,14.80
2022-12-17T20:33:44.939Z,14.90
2022-12-17T20:38:44.934Z,14.50
2022-12-17T20:43:44.831Z,14.70
2022-12-17T20:48:44.771Z,20.00
2022-12-17T20:53:44.733Z,17.40
2022-12-17T20:58:44.660Z,19.10
2022-12-17T21:03:44.675Z,18.30
2022-12-17T21:08:49.469Z,20.40
2022-12-17T21:13:45.488Z,20.90
2022-12-17T21:18:44.430Z,21.90
2022-12-17T21:23:44.369Z,16.10
2022-12-17T21:28:44.309Z,19.30
2022-12-17T21:33:44.276Z,14.50
2022-12-17T21:38:44.201Z,13.40
2022-12-17T21:43:44.151Z,14.50
2022-12-17T21:48:44.569Z,15.60
2022-12-17T21:53:44.016Z,15.20
2022-12-17T21:58:43.966Z,16.60
2022-12-17T22:03:43.917Z,21.70
2022-12-17T22:08:43.848Z,25.40
2022-12-17T22:13:43.795Z,15.20
2022-12-17T22:18:43.725Z,16.00
2022-12-17T22:23:43.674Z,14.50
2022-12-17T22:28:43.614Z,15.10
2022-12-17T22:34:00.928Z,20.60
2022-12-17T22:41:58.925Z,19.60
2022-12-17T22:44:41.943Z,15.40
2022-12-17T22:48:44.379Z,15.90
2022-12-17T22:53:43.573Z,13.70
2022-12-17T22:58:43.271Z,20.40
2022-12-17T23:03:44.240Z,21.90
2022-12-17T23:08:43.151Z,18.60
2022-12-17T23:13:43.100Z,17.00
2022-12-17T23:18:43.031Z,18.40
2022-12-17T23:23:43.127Z,16.30
2022-12-17T23:28:42.932Z,18.50
2022-12-17T23:33:43.013Z,14.50
2022-12-17T23:38:42.870Z,13.50
2022-12-17T23:43:42.778Z,16.30
2022-12-17T23:48:45.608Z,15.40
2022-12-17T23:53:43.082Z,11.40
2022-12-17T23:58:42.567Z,11.10
